sensor_id;sensor_type;location;lat;lon;timestamp;temperature;humidity
53695;DHT22;39588;51.124;7.190;2023-11-19T00:10:03;9.50;99.90
53695;DHT22;39588;51.124;7.190;2023-11-19T00:24:42;10.00;99.90
53695;DHT22;39588;51.124;7.190;2023-11-19T00:32:01;9.70;99.90
53695;DHT22;39588;51.124;7.190;2023-11-19T00:34:27;9.70;99.90
53695;DHT22;39588;51.124;7.190;2023-11-19T00:53:58;10.10;99.90
53695;DHT22;39588;51.124;7.190;2023-11-19T00:56:24;10.10;99.90
53695;DHT22;39588;51.124;7.190;2023-11-19T01:03:42;10.20;99.90
53695;DHT22;39588;51.124;7.190;2023-11-19T01:30:32;10.30;99.90
53695;DHT22;39588;51.124;7.190;2023-11-19T01:40:20;10.40;99.90
53695;DHT22;39588;51.124;7.190;2023-11-19T01:42:46;10.40;99.90
53695;DHT22;39588;51.124;7.190;2023-11-19T01:55:06;10.60;99.90
53695;DHT22;39588;51.124;7.190;2023-11-19T01:57:33;10.70;99.90
53695;DHT22;39588;51.124;7.190;2023-11-19T02:02:26;10.90;99.90
53695;DHT22;39588;51.124;7.190;2023-11-19T02:04:52;10.70;99.90
53695;DHT22;39588;51.124;7.190;2023-11-19T02:07:18;10.80;99.90
53695;DHT22;39588;51.124;7.190;2023-11-19T02:09:44;10.80;99.90
53695;DHT22;39588;51.124;7.190;2023-11-19T02:14:40;10.90;99.90
53695;DHT22;39588;51.124;7.190;2023-11-19T02:19:32;11.00;99.90
53695;DHT22;39588;51.124;7.190;2023-11-19T02:24:25;11.00;99.90
53695;DHT22;39588;51.124;7.190;2023-11-19T02:27:02;11.10;99.90
53695;DHT22;39588;51.124;7.190;2023-11-19T02:29:31;11.20;99.90
53695;DHT22;39588;51.124;7.190;2023-11-19T02:31:56;11.40;99.90
53695;DHT22;39588;51.124;7.190;2023-11-19T02:41:48;11.20;99.90
53695;DHT22;39588;51.124;7.190;2023-11-19T02:56:26;11.40;99.90
53695;DHT22;39588;51.124;7.190;2023-11-19T02:58:54;11.40;99.90
53695;DHT22;39588;51.124;7.190;2023-11-19T03:01:25;11.40;99.90
53695;DHT22;39588;51.124;7.190;2023-11-19T03:06:26;11.40;99.90
53695;DHT22;39588;51.124;7.190;2023-11-19T03:08:52;11.40;99.90
53695;DHT22;39588;51.124;7.190;2023-11-19T03:11:18;11.30;99.90
53695;DHT22;39588;51.124;7.190;2023-11-19T03:13:44;11.40;99.90
53695;DHT22;39588;51.124;7.190;2023-11-19T03:18:37;11.40;99.90
53695;DHT22;39588;51.124;7.190;2023-11-19T03:21:05;11.40;99.90
53695;DHT22;39588;51.124;7.190;2023-11-19T03:23:31;11.50;99.90
53695;DHT22;39588;51.124;7.190;2023-11-19T03:28:23;11.50;99.90
53695;DHT22;39588;51.124;7.190;2023-11-19T03:30:48;11.50;99.90
53695;DHT22;39588;51.124;7.190;2023-11-19T03:47:51;11.60;99.90
53695;DHT22;39588;51.124;7.190;2023-11-19T03:52:46;11.50;99.90
53695;DHT22;39588;51.124;7.190;2023-11-19T03:55:11;11.60;99.90
53695;DHT22;39588;51.124;7.190;2023-11-19T03:57:38;11.70;99.90
53695;DHT22;39588;51.124;7.190;2023-11-19T04:00:04;11.60;99.90
53695;DHT22;39588;51.124;7.190;2023-11-19T04:07:30;11.60;99.90
53695;DHT22;39588;51.124;7.190;2023-11-19T04:12:23;11.60;99.90
53695;DHT22;39588;51.124;7.190;2023-11-19T04:14:48;11.60;99.90
53695;DHT22;39588;51.124;7.190;2023-11-19T04:19:40;11.50;99.90
53695;DHT22;39588;51.124;7.190;2023-11-19T04:22:07;11.50;99.90
53695;DHT22;39588;51.124;7.190;2023-11-19T04:36:43;11.50;99.90
53695;DHT22;39588;51.124;7.190;2023-11-19T04:39:09;11.50;99.90
53695;DHT22;39588;51.124;7.190;2023-11-19T04:41:46;11.50;99.90
53695;DHT22;39588;51.124;7.190;2023-11-19T04:44:13;11.60;99.90
53695;DHT22;39588;51.124;7.190;2023-11-19T04:56:22;11.60;99.90
53695;DHT22;39588;51.124;7.190;2023-11-19T04:58:48;11.50;99.90
53695;DHT22;39588;51.124;7.190;2023-11-19T05:03:42;11.50;99.90
53695;DHT22;39588;51.124;7.190;2023-11-19T05:06:08;11.60;99.90
53695;DHT22;39588;51.124;7.190;2023-11-19T05:20:45;11.40;99.90
53695;DHT22;39588;51.124;7.190;2023-11-19T05:23:10;11.50;99.90
53695;DHT22;39588;51.124;7.190;2023-11-19T05:25:36;11.40;99.90
53695;DHT22;39588;51.124;7.190;2023-11-19T05:28:02;11.40;99.90
53695;DHT22;39588;51.124;7.190;2023-11-19T05:42:40;11.40;99.90
53695;DHT22;39588;51.124;7.190;2023-11-19T05:45:07;11.40;99.90
53695;DHT22;39588;51.124;7.190;2023-11-19T05:47:33;11.40;99.90
53695;DHT22;39588;51.124;7.190;2023-11-19T05:49:59;11.40;99.90
53695;DHT22;39588;51.124;7.190;2023-11-19T05:57:19;11.30;99.90
53695;DHT22;39588;51.124;7.190;2023-11-19T05:59:50;11.20;99.90
53695;DHT22;39588;51.124;7.190;2023-11-19T06:02:16;11.20;99.90
53695;DHT22;39588;51.124;7.190;2023-11-19T06:04:42;11.20;99.90
53695;DHT22;39588;51.124;7.190;2023-11-19T06:07:09;11.20;99.90
53695;DHT22;39588;51.124;7.190;2023-11-19T06:14:27;11.20;99.90
53695;DHT22;39588;51.124;7.190;2023-11-19T06:21:45;11.20;99.90
53695;DHT22;39588;51.124;7.190;2023-11-19T06:24:11;11.10;99.90
53695;DHT22;39588;51.124;7.190;2023-11-19T06:29:02;11.20;99.90
53695;DHT22;39588;51.124;7.190;2023-11-19T06:31:28;11.20;99.90
53695;DHT22;39588;51.124;7.190;2023-11-19T06:38:47;11.00;99.90
53695;DHT22;39588;51.124;7.190;2023-11-19T06:48:34;10.80;99.90
53695;DHT22;39588;51.124;7.190;2023-11-19T06:55:53;10.80;99.90
53695;DHT22;39588;51.124;7.190;2023-11-19T06:58:19;10.70;99.90
53695;DHT22;39588;51.124;7.190;2023-11-19T07:03:12;10.70;99.90
53695;DHT22;39588;51.124;7.190;2023-11-19T07:05:38;10.70;99.90
53695;DHT22;39588;51.124;7.190;2023-11-19T07:08:05;10.70;99.90
53695;DHT22;39588;51.124;7.190;2023-11-19T07:10:32;10.60;99.90
53695;DHT22;39588;51.124;7.190;2023-11-19T07:12:59;10.60;99.90
53695;DHT22;39588;51.124;7.190;2023-11-19T07:20:16;10.40;99.90
53695;DHT22;39588;51.124;7.190;2023-11-19T07:22:45;10.40;99.90
53695;DHT22;39588;51.124;7.190;2023-11-19T07:25:13;10.40;99.90
53695;DHT22;39588;51.124;7.190;2023-11-19T07:27:38;10.30;99.90
53695;DHT22;39588;51.124;7.190;2023-11-19T07:30:05;10.30;99.90
53695;DHT22;39588;51.124;7.190;2023-11-19T07:32:33;10.30;99.90
53695;DHT22;39588;51.124;7.190;2023-11-19T07:37:25;10.30;99.90
53695;DHT22;39588;51.124;7.190;2023-11-19T07:44:43;10.30;99.90
53695;DHT22;39588;51.124;7.190;2023-11-19T07:47:09;10.20;99.90
53695;DHT22;39588;51.124;7.190;2023-11-19T07:49:35;10.20;99.90
53695;DHT22;39588;51.124;7.190;2023-11-19T07:52:01;10.20;99.90
53695;DHT22;39588;51.124;7.190;2023-11-19T07:54:28;10.20;99.90
53695;DHT22;39588;51.124;7.190;2023-11-19T07:56:54;10.20;99.90
53695;DHT22;39588;51.124;7.190;2023-11-19T08:01:45;10.20;99.90
53695;DHT22;39588;51.124;7.190;2023-11-19T08:09:03;10.20;99.90
53695;DHT22;39588;51.124;7.190;2023-11-19T08:18:47;10.30;99.90
53695;DHT22;39588;51.124;7.190;2023-11-19T08:21:12;10.30;99.90
53695;DHT22;39588;51.124;7.190;2023-11-19T08:23:39;10.40;99.90
53695;DHT22;39588;51.124;7.190;2023-11-19T08:26:05;10.50;99.90
53695;DHT22;39588;51.124;7.190;2023-11-19T08:28:31;10.50;99.90
53695;DHT22;39588;51.124;7.190;2023-11-19T08:30:56;10.60;99.90
53695;DHT22;39588;51.124;7.190;2023-11-19T08:35:48;10.80;99.90
53695;DHT22;39588;51.124;7.190;2023-11-19T08:52:50;11.10;99.90
53695;DHT22;39588;51.124;7.190;2023-11-19T08:55:15;11.10;99.90
53695;DHT22;39588;51.124;7.190;2023-11-19T08:57:42;11.10;99.90
53695;DHT22;39588;51.124;7.190;2023-11-19T09:00:07;11.10;99.90
53695;DHT22;39588;51.124;7.190;2023-11-19T09:02:37;11.20;99.90
53695;DHT22;39588;51.124;7.190;2023-11-19T09:05:04;11.30;99.90
53695;DHT22;39588;51.124;7.190;2023-11-19T09:07:29;11.40;99.90
53695;DHT22;39588;51.124;7.190;2023-11-19T09:12:21;11.50;99.90
53695;DHT22;39588;51.124;7.190;2023-11-19T09:17:14;11.70;99.90
53695;DHT22;39588;51.124;7.190;2023-11-19T09:19:40;11.70;99.90
53695;DHT22;39588;51.124;7.190;2023-11-19T09:22:06;11.70;99.90
53695;DHT22;39588;51.124;7.190;2023-11-19T09:24:31;11.70;99.90
53695;DHT22;39588;51.124;7.190;2023-11-19T09:26:57;11.70;99.90
53695;DHT22;39588;51.124;7.190;2023-11-19T09:31:49;11.60;99.90
53695;DHT22;39588;51.124;7.190;2023-11-19T09:34:14;11.60;99.90
53695;DHT22;39588;51.124;7.190;2023-11-19T09:36:40;11.70;99.90
53695;DHT22;39588;51.124;7.190;2023-11-19T09:39:10;11.60;99.90
53695;DHT22;39588;51.124;7.190;2023-11-19T09:46:28;11.80;99.90
53695;DHT22;39588;51.124;7.190;2023-11-19T09:48:56;11.90;99.90
53695;DHT22;39588;51.124;7.190;2023-11-19T09:51:23;11.80;99.90
53695;DHT22;39588;51.124;7.190;2023-11-19T09:53:48;11.70;99.90
53695;DHT22;39588;51.124;7.190;2023-11-19T09:56:14;11.70;99.90
53695;DHT22;39588;51.124;7.190;2023-11-19T09:58:42;11.90;99.90
53695;DHT22;39588;51.124;7.190;2023-11-19T10:01:08;12.00;99.90
53695;DHT22;39588;51.124;7.190;2023-11-19T10:03:36;12.00;99.90
53695;DHT22;39588;51.124;7.190;2023-11-19T10:06:06;11.90;99.90
53695;DHT22;39588;51.124;7.190;2023-11-19T10:08:33;11.80;99.90
53695;DHT22;39588;51.124;7.190;2023-11-19T10:13:28;11.80;99.90
53695;DHT22;39588;51.124;7.190;2023-11-19T10:15:55;11.80;99.90
53695;DHT22;39588;51.124;7.190;2023-11-19T10:18:26;11.90;99.90
53695;DHT22;39588;51.124;7.190;2023-11-19T10:20:52;12.00;99.90
53695;DHT22;39588;51.124;7.190;2023-11-19T10:23:18;12.00;99.90
53695;DHT22;39588;51.124;7.190;2023-11-19T10:25:44;12.00;99.90
53695;DHT22;39588;51.124;7.190;2023-11-19T10:33:09;12.00;99.90
53695;DHT22;39588;51.124;7.190;2023-11-19T10:35:50;12.10;99.90
53695;DHT22;39588;51.124;7.190;2023-11-19T10:43:10;12.40;99.90
53695;DHT22;39588;51.124;7.190;2023-11-19T10:45:36;12.30;99.90
53695;DHT22;39588;51.124;7.190;2023-11-19T10:48:03;12.30;99.90
53695;DHT22;39588;51.124;7.190;2023-11-19T10:50:35;12.20;99.90
53695;DHT22;39588;51.124;7.190;2023-11-19T10:53:02;12.20;99.90
53695;DHT22;39588;51.124;7.190;2023-11-19T10:55:30;8.50;99.90
53695;DHT22;39588;51.124;7.190;2023-11-19T10:58:03;12.10;99.90
53695;DHT22;39588;51.124;7.190;2023-11-19T11:00:54;12.00;99.90
53695;DHT22;39588;51.124;7.190;2023-11-19T11:03:22;11.90;99.90
53695;DHT22;39588;51.124;7.190;2023-11-19T11:05:51;12.00;99.90
53695;DHT22;39588;51.124;7.190;2023-11-19T11:08:19;12.00;99.90
53695;DHT22;39588;51.124;7.190;2023-11-19T11:10:47;12.10;99.90
53695;DHT22;39588;51.124;7.190;2023-11-19T11:13:13;12.20;99.90
53695;DHT22;39588;51.124;7.190;2023-11-19T11:15:39;12.20;99.90
53695;DHT22;39588;51.124;7.190;2023-11-19T11:18:08;12.20;99.90
53695;DHT22;39588;51.124;7.190;2023-11-19T11:20:35;12.20;99.90
53695;DHT22;39588;51.124;7.190;2023-11-19T11:28:48;12.00;99.90
53695;DHT22;39588;51.124;7.190;2023-11-19T11:34:28;12.10;99.90
53695;DHT22;39588;51.124;7.190;2023-11-19T11:39:34;11.80;99.90
53695;DHT22;39588;51.124;7.190;2023-11-19T11:50:10;11.90;99.90
53695;DHT22;39588;51.124;7.190;2023-11-19T11:55:27;12.30;99.90
53695;DHT22;39588;51.124;7.190;2023-11-19T11:57:56;12.50;99.90
53695;DHT22;39588;51.124;7.190;2023-11-19T12:02:59;12.60;99.90
53695;DHT22;39588;51.124;7.190;2023-11-19T12:05:25;12.60;99.90
53695;DHT22;39588;51.124;7.190;2023-11-19T12:08:04;12.70;99.90
53695;DHT22;39588;51.124;7.190;2023-11-19T12:10:32;12.70;99.90
53695;DHT22;39588;51.124;7.190;2023-11-19T12:13:05;12.70;99.90
53695;DHT22;39588;51.124;7.190;2023-11-19T12:15:32;12.60;99.90
53695;DHT22;39588;51.124;7.190;2023-11-19T12:17:58;12.50;99.90
53695;DHT22;39588;51.124;7.190;2023-11-19T12:20:25;12.30;99.90
53695;DHT22;39588;51.124;7.190;2023-11-19T12:22:52;12.30;99.90
53695;DHT22;39588;51.124;7.190;2023-11-19T12:25:19;12.20;99.90
53695;DHT22;39588;51.124;7.190;2023-11-19T12:27:47;12.20;99.90
53695;DHT22;39588;51.124;7.190;2023-11-19T12:30:17;12.30;99.90
53695;DHT22;39588;51.124;7.190;2023-11-19T12:32:45;12.30;99.90
53695;DHT22;39588;51.124;7.190;2023-11-19T12:35:12;12.30;99.90
53695;DHT22;39588;51.124;7.190;2023-11-19T12:40:18;12.20;99.90
53695;DHT22;39588;51.124;7.190;2023-11-19T12:42:47;12.30;99.90
53695;DHT22;39588;51.124;7.190;2023-11-19T12:45:14;12.30;99.90
53695;DHT22;39588;51.124;7.190;2023-11-19T12:47:41;12.30;99.90
53695;DHT22;39588;51.124;7.190;2023-11-19T12:50:08;12.30;99.90
53695;DHT22;39588;51.124;7.190;2023-11-19T12:52:35;12.20;99.90
53695;DHT22;39588;51.124;7.190;2023-11-19T12:55:02;12.20;99.90
53695;DHT22;39588;51.124;7.190;2023-11-19T12:57:41;12.10;99.90
53695;DHT22;39588;51.124;7.190;2023-11-19T13:00:07;12.00;99.90
53695;DHT22;39588;51.124;7.190;2023-11-19T13:02:53;11.90;99.90
53695;DHT22;39588;51.124;7.190;2023-11-19T13:06:00;11.90;99.90
53695;DHT22;39588;51.124;7.190;2023-11-19T13:08:13;11.80;99.90
53695;DHT22;39588;51.124;7.190;2023-11-19T13:13:14;11.80;99.90
53695;DHT22;39588;51.124;7.190;2023-11-19T13:18:05;12.00;99.90
53695;DHT22;39588;51.124;7.190;2023-11-19T13:20:32;12.10;99.90
53695;DHT22;39588;51.124;7.190;2023-11-19T13:22:59;12.30;99.90
53695;DHT22;39588;51.124;7.190;2023-11-19T13:25:26;12.30;99.90
53695;DHT22;39588;51.124;7.190;2023-11-19T13:27:53;12.20;99.90
53695;DHT22;39588;51.124;7.190;2023-11-19T13:30:19;12.40;99.90
53695;DHT22;39588;51.124;7.190;2023-11-19T13:32:45;12.30;99.90
53695;DHT22;39588;51.124;7.190;2023-11-19T13:37:38;12.30;99.90
53695;DHT22;39588;51.124;7.190;2023-11-19T13:40:05;12.20;99.90
53695;DHT22;39588;51.124;7.190;2023-11-19T13:42:30;12.20;99.90
53695;DHT22;39588;51.124;7.190;2023-11-19T13:44:56;12.20;99.90
53695;DHT22;39588;51.124;7.190;2023-11-19T13:47:22;12.10;99.90
53695;DHT22;39588;51.124;7.190;2023-11-19T13:49:47;12.10;99.90
53695;DHT22;39588;51.124;7.190;2023-11-19T13:52:13;12.20;99.90
53695;DHT22;39588;51.124;7.190;2023-11-19T13:54:38;12.20;99.90
53695;DHT22;39588;51.124;7.190;2023-11-19T13:59:33;12.10;99.90
53695;DHT22;39588;51.124;7.190;2023-11-19T14:06:51;11.90;99.90
53695;DHT22;39588;51.124;7.190;2023-11-19T14:09:17;11.90;99.90
53695;DHT22;39588;51.124;7.190;2023-11-19T14:11:43;11.90;99.90
53695;DHT22;39588;51.124;7.190;2023-11-19T14:14:09;11.80;99.90
53695;DHT22;39588;51.124;7.190;2023-11-19T14:23:53;11.70;99.90
53695;DHT22;39588;51.124;7.190;2023-11-19T14:26:18;11.70;99.90
53695;DHT22;39588;51.124;7.190;2023-11-19T14:28:44;11.70;99.90
53695;DHT22;39588;51.124;7.190;2023-11-19T14:31:10;11.70;99.90
53695;DHT22;39588;51.124;7.190;2023-11-19T14:36:03;11.60;99.90
53695;DHT22;39588;51.124;7.190;2023-11-19T14:40:55;11.50;99.90
53695;DHT22;39588;51.124;7.190;2023-11-19T14:43:21;11.40;99.90
53695;DHT22;39588;51.124;7.190;2023-11-19T14:45:46;11.40;99.90
53695;DHT22;39588;51.124;7.190;2023-11-19T14:48:15;11.30;99.90
53695;DHT22;39588;51.124;7.190;2023-11-19T14:50:41;11.30;99.90
53695;DHT22;39588;51.124;7.190;2023-11-19T14:53:06;11.30;99.90
53695;DHT22;39588;51.124;7.190;2023-11-19T14:55:32;11.30;99.90
53695;DHT22;39588;51.124;7.190;2023-11-19T15:02:51;11.30;99.90
53695;DHT22;39588;51.124;7.190;2023-11-19T15:05:17;11.30;99.90
53695;DHT22;39588;51.124;7.190;2023-11-19T15:12:39;11.20;99.90
53695;DHT22;39588;51.124;7.190;2023-11-19T15:15:09;11.10;99.90
53695;DHT22;39588;51.124;7.190;2023-11-19T15:17:36;11.10;99.90
53695;DHT22;39588;51.124;7.190;2023-11-19T15:20:03;11.00;99.90
53695;DHT22;39588;51.124;7.190;2023-11-19T15:32:14;10.90;99.90
53695;DHT22;39588;51.124;7.190;2023-11-19T15:37:07;10.90;99.90
53695;DHT22;39588;51.124;7.190;2023-11-19T15:39:33;10.80;99.90
53695;DHT22;39588;51.124;7.190;2023-11-19T15:42:01;10.80;99.90
53695;DHT22;39588;51.124;7.190;2023-11-19T15:44:27;10.80;99.90
53695;DHT22;39588;51.124;7.190;2023-11-19T15:46:54;10.80;99.90
53695;DHT22;39588;51.124;7.190;2023-11-19T15:54:12;10.80;99.90
53695;DHT22;39588;51.124;7.190;2023-11-19T15:56:37;10.80;99.90
53695;DHT22;39588;51.124;7.190;2023-11-19T15:59:03;10.80;99.90
53695;DHT22;39588;51.124;7.190;2023-11-19T16:01:33;10.80;99.90
53695;DHT22;39588;51.124;7.190;2023-11-19T16:03:59;10.70;99.90
53695;DHT22;39588;51.124;7.190;2023-11-19T16:13:43;10.70;99.90
53695;DHT22;39588;51.124;7.190;2023-11-19T16:16:09;10.70;99.90
53695;DHT22;39588;51.124;7.190;2023-11-19T16:21:00;10.60;99.90
53695;DHT22;39588;51.124;7.190;2023-11-19T16:23:26;10.60;99.90
53695;DHT22;39588;51.124;7.190;2023-11-19T16:25:53;10.60;99.90
53695;DHT22;39588;51.124;7.190;2023-11-19T16:28:18;10.60;99.90
53695;DHT22;39588;51.124;7.190;2023-11-19T16:30:44;10.70;99.90
53695;DHT22;39588;51.124;7.190;2023-11-19T16:33:10;10.70;99.90
53695;DHT22;39588;51.124;7.190;2023-11-19T16:35:36;10.70;99.90
53695;DHT22;39588;51.124;7.190;2023-11-19T16:38:02;10.70;99.90
53695;DHT22;39588;51.124;7.190;2023-11-19T16:40:28;9.40;99.90
53695;DHT22;39588;51.124;7.190;2023-11-19T16:45:20;10.60;99.90
53695;DHT22;39588;51.124;7.190;2023-11-19T16:47:47;10.60;99.90
53695;DHT22;39588;51.124;7.190;2023-11-19T16:50:13;10.60;99.90
53695;DHT22;39588;51.124;7.190;2023-11-19T16:52:41;10.60;99.90
53695;DHT22;39588;51.124;7.190;2023-11-19T16:55:07;10.60;99.90
53695;DHT22;39588;51.124;7.190;2023-11-19T16:57:40;10.60;99.90
53695;DHT22;39588;51.124;7.190;2023-11-19T17:00:07;10.60;99.90
53695;DHT22;39588;51.124;7.190;2023-11-19T17:02:33;10.60;99.90
53695;DHT22;39588;51.124;7.190;2023-11-19T17:04:58;10.60;99.90
53695;DHT22;39588;51.124;7.190;2023-11-19T17:09:51;10.60;99.90
53695;DHT22;39588;51.124;7.190;2023-11-19T17:17:08;10.60;99.90
53695;DHT22;39588;51.124;7.190;2023-11-19T17:19:34;10.50;99.90
53695;DHT22;39588;51.124;7.190;2023-11-19T17:22:00;10.50;99.90
53695;DHT22;39588;51.124;7.190;2023-11-19T17:24:25;10.60;99.90
53695;DHT22;39588;51.124;7.190;2023-11-19T17:31:43;10.50;99.90
53695;DHT22;39588;51.124;7.190;2023-11-19T17:34:10;10.50;99.90
53695;DHT22;39588;51.124;7.190;2023-11-19T17:36:35;10.60;99.90
53695;DHT22;39588;51.124;7.190;2023-11-19T17:39:02;10.60;99.90
53695;DHT22;39588;51.124;7.190;2023-11-19T17:41:29;10.50;99.90
53695;DHT22;39588;51.124;7.190;2023-11-19T17:43:55;10.50;99.90
53695;DHT22;39588;51.124;7.190;2023-11-19T17:46:21;10.50;99.90
53695;DHT22;39588;51.124;7.190;2023-11-19T17:48:47;10.50;99.90
53695;DHT22;39588;51.124;7.190;2023-11-19T17:51:13;10.50;99.90
53695;DHT22;39588;51.124;7.190;2023-11-19T17:53:42;10.50;99.90
53695;DHT22;39588;51.124;7.190;2023-11-19T17:56:08;10.40;99.90
53695;DHT22;39588;51.124;7.190;2023-11-19T18:01:02;10.40;99.90
53695;DHT22;39588;51.124;7.190;2023-11-19T18:10:49;10.40;99.90
53695;DHT22;39588;51.124;7.190;2023-11-19T18:13:15;10.40;99.90
53695;DHT22;39588;51.124;7.190;2023-11-19T18:15:42;10.40;99.90
53695;DHT22;39588;51.124;7.190;2023-11-19T18:18:07;10.40;99.90
53695;DHT22;39588;51.124;7.190;2023-11-19T18:20:34;10.40;99.90
53695;DHT22;39588;51.124;7.190;2023-11-19T18:23:01;10.40;99.90
53695;DHT22;39588;51.124;7.190;2023-11-19T18:25:27;10.40;99.90
53695;DHT22;39588;51.124;7.190;2023-11-19T18:32:44;10.50;99.90
53695;DHT22;39588;51.124;7.190;2023-11-19T18:37:40;10.40;99.90
53695;DHT22;39588;51.124;7.190;2023-11-19T18:40:06;10.40;99.90
53695;DHT22;39588;51.124;7.190;2023-11-19T18:42:36;10.40;99.90
53695;DHT22;39588;51.124;7.190;2023-11-19T18:45:03;10.50;99.90
53695;DHT22;39588;51.124;7.190;2023-11-19T18:47:32;10.40;99.90
53695;DHT22;39588;51.124;7.190;2023-11-19T18:49:59;10.30;99.90
53695;DHT22;39588;51.124;7.190;2023-11-19T18:52:25;10.30;99.90
53695;DHT22;39588;51.124;7.190;2023-11-19T18:54:54;10.30;99.90
53695;DHT22;39588;51.124;7.190;2023-11-19T18:57:22;10.30;99.90
53695;DHT22;39588;51.124;7.190;2023-11-19T19:09:34;10.30;99.90
53695;DHT22;39588;51.124;7.190;2023-11-19T19:12:00;10.30;99.90
53695;DHT22;39588;51.124;7.190;2023-11-19T19:14:26;10.30;99.90
53695;DHT22;39588;51.124;7.190;2023-11-19T19:16:52;10.30;99.90
53695;DHT22;39588;51.124;7.190;2023-11-19T19:19:19;10.30;99.90
53695;DHT22;39588;51.124;7.190;2023-11-19T19:21:45;10.30;99.90
53695;DHT22;39588;51.124;7.190;2023-11-19T19:24:11;10.20;99.90
53695;DHT22;39588;51.124;7.190;2023-11-19T19:26:40;10.20;99.90
53695;DHT22;39588;51.124;7.190;2023-11-19T19:29:07;10.20;99.90
53695;DHT22;39588;51.124;7.190;2023-11-19T19:31:33;10.20;99.90
53695;DHT22;39588;51.124;7.190;2023-11-19T19:33:58;10.20;99.90
53695;DHT22;39588;51.124;7.190;2023-11-19T19:36:25;10.20;99.90
53695;DHT22;39588;51.124;7.190;2023-11-19T19:41:19;10.20;99.90
53695;DHT22;39588;51.124;7.190;2023-11-19T19:43:44;10.20;99.90
53695;DHT22;39588;51.124;7.190;2023-11-19T19:46:10;10.20;99.90
53695;DHT22;39588;51.124;7.190;2023-11-19T19:48:36;10.20;99.90
53695;DHT22;39588;51.124;7.190;2023-11-19T19:53:29;10.20;99.90
53695;DHT22;39588;51.124;7.190;2023-11-19T19:55:55;10.20;99.90
53695;DHT22;39588;51.124;7.190;2023-11-19T19:58:21;10.20;99.90
53695;DHT22;39588;51.124;7.190;2023-11-19T20:00:47;10.10;99.90
53695;DHT22;39588;51.124;7.190;2023-11-19T20:10:32;10.10;99.90
53695;DHT22;39588;51.124;7.190;2023-11-19T20:12:59;10.10;99.90
53695;DHT22;39588;51.124;7.190;2023-11-19T20:15:37;10.10;99.90
53695;DHT22;39588;51.124;7.190;2023-11-19T20:18:03;10.00;99.90
53695;DHT22;39588;51.124;7.190;2023-11-19T20:20:29;10.00;99.90
53695;DHT22;39588;51.124;7.190;2023-11-19T20:22:56;10.00;99.90
53695;DHT22;39588;51.124;7.190;2023-11-19T20:25:21;10.00;99.90
53695;DHT22;39588;51.124;7.190;2023-11-19T20:27:47;10.00;99.90
53695;DHT22;39588;51.124;7.190;2023-11-19T20:30:14;10.00;99.90
53695;DHT22;39588;51.124;7.190;2023-11-19T20:32:40;10.10;99.90
53695;DHT22;39588;51.124;7.190;2023-11-19T20:35:07;10.10;99.90
53695;DHT22;39588;51.124;7.190;2023-11-19T20:37:33;10.10;99.90
53695;DHT22;39588;51.124;7.190;2023-11-19T20:42:30;10.10;99.90
53695;DHT22;39588;51.124;7.190;2023-11-19T20:49:47;10.10;99.90
53695;DHT22;39588;51.124;7.190;2023-11-19T20:54:39;10.00;99.90
53695;DHT22;39588;51.124;7.190;2023-11-19T20:57:05;10.10;99.90
53695;DHT22;39588;51.124;7.190;2023-11-19T21:01:56;10.00;99.90
53695;DHT22;39588;51.124;7.190;2023-11-19T21:06:49;10.10;99.90
53695;DHT22;39588;51.124;7.190;2023-11-19T21:09:16;10.10;99.90
53695;DHT22;39588;51.124;7.190;2023-11-19T21:11:42;10.10;99.90
53695;DHT22;39588;51.124;7.190;2023-11-19T21:14:07;10.10;99.90
53695;DHT22;39588;51.124;7.190;2023-11-19T21:16:34;10.10;99.90
53695;DHT22;39588;51.124;7.190;2023-11-19T21:19:00;10.10;99.90
53695;DHT22;39588;51.124;7.190;2023-11-19T21:21:25;10.10;99.90
53695;DHT22;39588;51.124;7.190;2023-11-19T21:23:51;10.10;99.90
53695;DHT22;39588;51.124;7.190;2023-11-19T21:26:17;10.10;99.90
53695;DHT22;39588;51.124;7.190;2023-11-19T21:36:01;10.20;99.90
53695;DHT22;39588;51.124;7.190;2023-11-19T21:38:26;10.10;99.90
53695;DHT22;39588;51.124;7.190;2023-11-19T21:43:20;10.10;99.90
53695;DHT22;39588;51.124;7.190;2023-11-19T21:45:46;10.10;99.90
53695;DHT22;39588;51.124;7.190;2023-11-19T21:50:41;10.10;99.90
53695;DHT22;39588;51.124;7.190;2023-11-19T21:53:07;10.10;99.90
53695;DHT22;39588;51.124;7.190;2023-11-19T21:55:33;10.10;99.90
53695;DHT22;39588;51.124;7.190;2023-11-19T21:57:59;10.10;99.90
53695;DHT22;39588;51.124;7.190;2023-11-19T22:00:25;10.10;99.90
53695;DHT22;39588;51.124;7.190;2023-11-19T22:02:51;10.00;99.90
53695;DHT22;39588;51.124;7.190;2023-11-19T22:05:17;10.10;99.90
53695;DHT22;39588;51.124;7.190;2023-11-19T22:07:46;10.10;99.90
53695;DHT22;39588;51.124;7.190;2023-11-19T22:10:12;10.10;99.90
53695;DHT22;39588;51.124;7.190;2023-11-19T22:12:41;10.10;99.90
53695;DHT22;39588;51.124;7.190;2023-11-19T22:15:07;10.10;99.90
53695;DHT22;39588;51.124;7.190;2023-11-19T22:17:34;10.10;99.90
53695;DHT22;39588;51.124;7.190;2023-11-19T22:20:02;10.10;99.90
53695;DHT22;39588;51.124;7.190;2023-11-19T22:22:27;10.10;99.90
53695;DHT22;39588;51.124;7.190;2023-11-19T22:24:53;10.10;99.90
53695;DHT22;39588;51.124;7.190;2023-11-19T22:29:45;10.10;99.90
53695;DHT22;39588;51.124;7.190;2023-11-19T22:32:14;10.10;99.90
53695;DHT22;39588;51.124;7.190;2023-11-19T22:34:39;10.10;99.90
53695;DHT22;39588;51.124;7.190;2023-11-19T22:37:05;10.10;99.90
53695;DHT22;39588;51.124;7.190;2023-11-19T22:44:24;10.10;99.90
53695;DHT22;39588;51.124;7.190;2023-11-19T22:46:50;10.10;99.90
53695;DHT22;39588;51.124;7.190;2023-11-19T22:49:16;10.10;99.90
53695;DHT22;39588;51.124;7.190;2023-11-19T22:59:00;10.00;99.90
53695;DHT22;39588;51.124;7.190;2023-11-19T23:03:52;10.00;99.90
53695;DHT22;39588;51.124;7.190;2023-11-19T23:06:18;10.10;99.90
53695;DHT22;39588;51.124;7.190;2023-11-19T23:08:44;10.10;99.90
53695;DHT22;39588;51.124;7.190;2023-11-19T23:16:03;10.10;99.90
53695;DHT22;39588;51.124;7.190;2023-11-19T23:18:29;10.10;99.90
53695;DHT22;39588;51.124;7.190;2023-11-19T23:20:55;10.10;99.90
53695;DHT22;39588;51.124;7.190;2023-11-19T23:25:47;10.10;99.90
53695;DHT22;39588;51.124;7.190;2023-11-19T23:28:14;10.10;99.90
53695;DHT22;39588;51.124;7.190;2023-11-19T23:30:40;10.10;99.90
53695;DHT22;39588;51.124;7.190;2023-11-19T23:33:05;10.10;99.90
53695;DHT22;39588;51.124;7.190;2023-11-19T23:35:33;10.10;99.90
53695;DHT22;39588;51.124;7.190;2023-11-19T23:37:59;10.10;99.90
53695;DHT22;39588;51.124;7.190;2023-11-19T23:47:44;10.10;99.90
53695;DHT22;39588;51.124;7.190;2023-11-19T23:50:10;10.10;99.90
53695;DHT22;39588;51.124;7.190;2023-11-19T23:52:37;10.10;99.90
53695;DHT22;39588;51.124;7.190;2023-11-19T23:55:02;10.10;99.90
53695;DHT22;39588;51.124;7.190;2023-11-19T23:57:28;10.10;99.90